Time;durP1;ratioP1;P1;durP2;ratioP2;P2;SDS_P1;SDS_P2;PMS_P1;PMS_P2;Temp;Humidity;BMP_temperature;BMP_pressure;BME280_temperature;BME280_humidity;BME280_pressure;Samples;Min_cycle;Max_cycle;Signal;HPM_P1;HPM_P2
2021/05/20 00:01:34;;;;;;;30.45;17.27;;;;;;;7.51;77.61;100555.48;1699570;84;20964;-68
2021/05/20 00:04:00;;;;;;;25.48;14.95;;;;;;;7.49;77.65;100562.73;1699067;84;21000;-68
2021/05/20 00:06:27;;;;;;;26.05;14.55;;;;;;;7.50;77.70;100566.23;1699387;83;21677;-68
2021/05/20 00:08:53;;;;;;;27.20;15.32;;;;;;;7.45;77.78;100564.04;1699351;84;21084;-67
2021/05/20 00:11:19;;;;;;;27.90;16.07;;;;;;;7.40;77.81;100564.95;1699751;84;21076;-67
2021/05/20 00:13:45;;;;;;;28.92;16.40;;;;;;;7.36;77.86;100563.57;1699444;83;20904;-68
2021/05/20 00:16:11;;;;;;;29.57;15.83;;;;;;;7.34;77.89;100568.68;1699369;84;21104;-68
2021/05/20 00:18:37;;;;;;;31.73;15.53;;;;;;;7.33;77.92;100570.50;1699510;84;20940;-68
2021/05/20 00:21:04;;;;;;;27.85;15.10;;;;;;;7.29;77.94;100573.09;1699496;83;20925;-68
2021/05/20 00:23:30;;;;;;;28.57;14.87;;;;;;;7.26;77.97;100569.41;1699620;83;21116;-68
2021/05/20 00:25:56;;;;;;;28.30;15.15;;;;;;;7.20;78.01;100572.64;1699447;84;21025;-68
2021/05/20 00:28:22;;;;;;;26.97;14.25;;;;;;;7.17;78.04;100580.89;1699801;84;21134;-67
2021/05/20 00:30:48;;;;;;;27.82;14.45;;;;;;;7.15;78.10;100574.03;1669581;86;21021;-68
2021/05/20 00:33:14;;;;;;;28.10;14.30;;;;;;;7.12;78.14;100583.12;1699480;84;21647;-68
2021/05/20 00:35:41;;;;;;;25.60;15.13;;;;;;;7.12;78.17;100581.80;1699589;84;21013;-68
2021/05/20 00:38:12;;;;;;;27.67;14.35;;;;;;;7.11;78.19;100588.06;1699459;84;21088;-68
2021/05/20 00:40:38;;;;;;;22.60;13.58;;;;;;;7.11;78.19;100588.59;1679530;84;21083;-68
2021/05/20 00:43:04;;;;;;;20.35;12.50;;;;;;;7.08;78.23;100594.14;1698048;84;20858;-67
2021/05/20 00:45:30;;;;;;;30.12;15.45;;;;;;;7.04;78.23;100589.13;1699519;84;20874;-68
2021/05/20 00:47:56;;;;;;;26.42;15.00;;;;;;;7.03;78.28;100594.59;1697553;84;20889;-67
2021/05/20 00:50:22;;;;;;;29.15;14.07;;;;;;;7.04;78.28;100593.59;1699686;84;20979;-67
2021/05/20 00:52:48;;;;;;;28.83;15.48;;;;;;;7.05;78.31;100599.25;1698268;84;21575;-67
2021/05/20 00:55:19;;;;;;;24.10;14.55;;;;;;;7.09;78.32;100603.78;1699575;83;21040;-68
2021/05/20 00:57:44;;;;;;;24.35;15.38;;;;;;;7.12;78.34;100596.37;1698621;84;21072;-68
2021/05/20 01:00:12;;;;;;;26.70;14.33;;;;;;;7.14;78.36;100602.39;1697989;84;21040;-68
2021/05/20 01:02:39;;;;;;;24.25;13.88;;;;;;;7.15;78.38;100604.05;1686985;84;21120;-67
2021/05/20 01:05:11;;;;;;;23.55;14.33;;;;;;;7.15;78.44;100604.05;1699336;84;21802;-68
2021/05/20 01:07:38;;;;;;;23.95;14.80;;;;;;;7.18;78.45;100606.41;1698089;84;21080;-67
2021/05/20 01:10:05;;;;;;;22.42;15.65;;;;;;;7.20;78.49;100603.63;1686990;85;21049;-67
2021/05/20 01:12:31;;;;;;;27.27;15.60;;;;;;;7.17;78.54;100604.75;1699710;84;21072;-68
2021/05/20 01:14:57;;;;;;;30.45;15.85;;;;;;;7.19;78.55;100602.78;1699616;84;21013;-68
2021/05/20 01:17:25;;;;;;;23.62;14.43;;;;;;;7.18;78.60;100606.41;1699547;84;21239;-67
2021/05/20 01:19:51;;;;;;;26.40;14.15;;;;;;;7.20;78.63;100615.08;1698123;84;21167;-68
2021/05/20 01:22:18;;;;;;;22.30;14.47;;;;;;;7.24;78.67;100613.81;1686844;85;21057;-67
2021/05/20 01:24:44;;;;;;;22.05;13.88;;;;;;;7.27;78.71;100610.88;1699840;84;21614;-67
2021/05/20 01:27:11;;;;;;;21.80;13.95;;;;;;;7.32;78.75;100613.91;1698165;84;21075;-67
2021/05/20 01:29:39;;;;;;;20.85;13.08;;;;;;;7.37;78.79;100620.96;1686671;85;21716;-67
2021/05/20 01:32:05;;;;;;;22.35;15.23;;;;;;;7.41;78.83;100617.53;1699469;84;21087;-68
2021/05/20 01:34:32;;;;;;;23.47;14.15;;;;;;;7.45;78.86;100613.61;1698040;84;21556;-68
2021/05/20 01:37:01;;;;;;;22.58;12.98;;;;;;;7.47;78.91;100615.62;1687144;85;21069;-68
2021/05/20 01:39:27;;;;;;;21.57;13.38;;;;;;;7.51;78.96;100615.19;1699212;84;21489;-68
2021/05/20 01:41:53;;;;;;;19.62;13.00;;;;;;;7.58;79.00;100614.61;1670165;85;21002;-68
2021/05/20 01:44:20;;;;;;;19.02;12.23;;;;;;;7.64;79.00;100615.34;1699627;84;20933;-68
2021/05/20 01:46:46;;;;;;;21.55;13.62;;;;;;;7.63;79.03;100615.86;1699521;84;21069;-68
2021/05/20 01:49:12;;;;;;;25.37;14.28;;;;;;;7.62;79.04;100609.36;1699824;84;21111;-68
2021/05/20 01:51:41;;;;;;;26.17;14.93;;;;;;;7.63;79.09;100613.69;1699763;84;21536;-67
2021/05/20 01:54:07;;;;;;;24.05;14.45;;;;;;;7.62;79.14;100614.17;1699711;84;21718;-68
2021/05/20 01:56:36;;;;;;;23.57;13.68;;;;;;;7.62;79.16;100614.66;1697333;84;20981;-68
2021/05/20 01:59:08;;;;;;;20.27;13.70;;;;;;;7.61;79.19;100609.00;1699806;84;21009;-68
2021/05/20 02:01:34;;;;;;;22.67;13.40;;;;;;;7.64;79.22;100613.53;1697430;84;21044;-68
2021/05/20 02:04:00;;;;;;;22.02;13.58;;;;;;;7.69;79.25;100611.28;1686693;84;21058;-68
2021/05/20 02:06:26;;;;;;;21.75;13.30;;;;;;;7.70;79.29;100608.14;1699574;84;21126;-68
2021/05/20 02:08:52;;;;;;;22.05;13.18;;;;;;;7.64;79.27;100612.69;1698081;84;21039;-68
2021/05/20 02:11:18;;;;;;;20.72;13.05;;;;;;;7.56;79.30;100605.97;1686912;85;20950;-68
2021/05/20 02:13:44;;;;;;;21.30;11.75;;;;;;;7.49;79.33;100607.04;1699411;84;20865;-68
2021/05/20 02:16:10;;;;;;;20.68;11.85;;;;;;;7.49;79.36;100613.67;1699741;84;20873;-68
2021/05/20 02:18:36;;;;;;;20.27;12.47;;;;;;;7.47;79.38;100605.00;1669253;85;21144;-68
2021/05/20 02:21:03;;;;;;;18.85;12.03;;;;;;;7.47;79.40;100609.83;1669877;85;21072;-68
2021/05/20 02:23:29;;;;;;;18.67;10.78;;;;;;;7.50;79.44;100608.69;1698033;84;21032;-68
2021/05/20 02:25:55;;;;;;;17.35;10.95;;;;;;;7.47;79.44;100610.31;1699761;84;21619;-68
2021/05/20 02:28:21;;;;;;;20.82;11.53;;;;;;;7.42;79.50;100608.60;1698229;84;20979;-68
2021/05/20 02:30:47;;;;;;;20.12;11.38;;;;;;;7.41;79.52;100614.88;1699520;83;21927;-68
2021/05/20 02:33:13;;;;;;;19.42;10.80;;;;;;;7.38;79.55;100619.98;1698055;84;21113;-68
2021/05/20 02:35:39;;;;;;;15.90;11.30;;;;;;;7.36;79.58;100621.94;1699591;84;21018;-67
2021/05/20 02:38:05;;;;;;;21.35;11.95;;;;;;;7.31;79.63;100612.27;1699684;84;21072;-68
2021/05/20 02:40:31;;;;;;;27.93;11.93;;;;;;;7.27;79.65;100613.52;1698024;84;21004;-68
2021/05/20 02:42:57;;;;;;;17.90;11.40;;;;;;;7.27;79.66;100618.83;1686855;85;21234;-67
2021/05/20 02:45:26;;;;;;;18.05;11.40;;;;;;;7.24;79.67;100616.47;1699644;84;20906;-68
2021/05/20 02:47:52;;;;;;;20.43;12.37;;;;;;;7.20;79.71;100621.70;1697767;84;21032;-68
2021/05/20 02:50:19;;;;;;;24.60;12.93;;;;;;;7.16;79.72;100620.80;1686935;85;21108;-68
2021/05/20 02:52:46;;;;;;;22.05;12.13;;;;;;;7.08;79.73;100624.16;1699142;84;21021;-68
2021/05/20 02:55:15;;;;;;;21.02;11.68;;;;;;;7.00;79.75;100624.05;1699785;84;21986;-67
2021/05/20 02:57:43;;;;;;;24.45;11.12;;;;;;;7.00;79.78;100622.72;1669563;85;21045;-68
2021/05/20 03:00:11;;;;;;;18.98;12.65;;;;;;;7.02;79.79;100624.73;1669895;85;21041;-67
2021/05/20 03:02:37;;;;;;;22.32;11.35;;;;;;;7.01;79.79;100626.55;1669958;84;21112;-68
2021/05/20 03:05:07;;;;;;;20.48;11.57;;;;;;;7.02;79.79;100623.41;1670021;85;21053;-68
2021/05/20 03:07:35;;;;;;;17.32;10.88;;;;;;;7.01;79.79;100623.05;1666440;85;21077;-68
2021/05/20 03:10:05;;;;;;;17.92;11.18;;;;;;;7.01;79.81;100629.67;1658906;86;21025;-68
2021/05/20 03:12:31;;;;;;;;;;;;;;;6.98;79.81;100636.59;1661612;85;21033;-68
2021/05/20 03:14:57;;;;;;;28.65;12.40;;;;;;;6.95;79.85;100626.27;1688109;85;20173;-67
2021/05/20 03:17:25;;;;;;;23.83;12.80;;;;;;;6.94;79.80;100626.76;1678871;85;21094;-68
2021/05/20 03:19:53;;;;;;;20.50;11.97;;;;;;;6.96;79.81;100627.95;1697154;83;21099;-68
2021/05/20 03:22:19;;;;;;;26.33;15.00;;;;;;;6.97;79.82;100624.30;1725484;82;21024;-68
2021/05/20 03:24:45;;;;;;;24.12;15.60;;;;;;;7.01;79.79;100633.66;1725746;83;21124;-68
2021/05/20 03:27:11;;;;;;;36.00;16.07;;;;;;;6.98;79.78;100636.59;1725567;83;20921;-67
2021/05/20 03:29:37;;;;;;;21.50;12.18;;;;;;;6.97;79.77;100633.59;1725568;83;21049;-67
2021/05/20 03:32:03;;;;;;;28.50;14.45;;;;;;;6.99;79.80;100630.33;1725311;83;21120;-68
2021/05/20 03:34:29;;;;;;;31.17;14.98;;;;;;;7.03;79.82;100633.05;1725407;83;21135;-68
2021/05/20 03:36:55;;;;;;;23.55;14.45;;;;;;;7.08;79.83;100634.77;1725644;83;21571;-68
2021/05/20 03:39:21;;;;;;;27.32;14.47;;;;;;;7.24;79.94;100638.17;1725395;83;20901;-68
2021/05/20 03:41:47;;;;;;;26.27;13.72;;;;;;;7.66;80.14;100635.95;1725727;83;20905;-68
2021/05/20 03:44:13;;;;;;;20.57;12.85;;;;;;;8.29;80.36;100628.47;1725385;83;21128;-68
2021/05/20 03:46:39;;;;;;;33.63;17.40;;;;;;;9.06;80.40;100625.20;1725736;83;21052;-68
2021/05/20 03:49:05;;;;;;;23.07;13.05;;;;;;;9.97;80.29;100629.90;1725506;83;20981;-68
2021/05/20 03:51:31;;;;;;;24.87;13.78;;;;;;;10.88;79.95;100624.63;1688481;85;20874;-68
2021/05/20 03:53:57;;;;;;;18.20;10.78;;;;;;;11.71;79.59;100617.22;1678802;85;20996;-68
2021/05/20 03:56:23;;;;;;;13.75;10.15;;;;;;;12.53;79.22;100621.98;1725463;83;21229;-68
2021/05/20 03:58:49;;;;;;;18.45;11.15;;;;;;;13.32;78.80;100614.87;1688250;83;20992;-69
2021/05/20 04:01:15;;;;;;;21.25;11.75;;;;;;;14.05;78.29;100619.41;1678681;85;20999;-69
2021/05/20 04:03:41;;;;;;;19.67;13.15;;;;;;;14.68;77.58;100620.06;1725607;83;20881;-69
2021/05/20 04:06:07;;;;;;;25.05;12.03;;;;;;;15.57;76.68;100621.27;1725484;83;21098;-69
2021/05/20 04:08:36;;;;;;;14.30;10.15;;;;;;;16.18;75.91;100611.47;1725541;82;21138;-69
2021/05/20 04:11:03;;;;;;;17.67;9.83;;;;;;;16.81;75.08;100618.81;1688498;85;21041;-69
2021/05/20 04:13:38;;;;;;;13.70;8.75;;;;;;;17.23;74.13;100614.38;1678534;85;21149;-69
2021/05/20 04:16:05;;;;;;;14.20;9.45;;;;;;;17.48;73.25;100615.41;1724935;82;21079;-70
2021/05/20 04:18:31;;;;;;;13.50;9.48;;;;;;;17.54;72.42;100616.94;1725465;83;21006;-69
2021/05/20 04:20:57;;;;;;;17.42;10.72;;;;;;;17.76;71.56;100621.08;1725682;83;21126;-69
2021/05/20 04:23:23;;;;;;;11.05;7.10;;;;;;;18.30;70.47;100625.55;1688251;84;20996;-69
2021/05/20 04:25:50;;;;;;;20.97;11.50;;;;;;;18.95;69.32;100625.74;1673869;85;20973;-69
2021/05/20 04:28:17;;;;;;;16.75;12.82;;;;;;;19.12;68.27;100629.25;1688142;83;21044;-70
2021/05/20 04:30:43;;;;;;;11.78;7.22;;;;;;;18.95;67.45;100646.02;1679042;85;21516;-69
2021/05/20 04:33:09;;;;;;;8.85;6.75;;;;;;;18.75;66.54;100635.03;1725751;83;21048;-69
2021/05/20 04:35:35;;;;;;;8.00;6.62;;;;;;;18.85;65.18;100637.56;1725631;83;21036;-69
2021/05/20 04:38:03;;;;;;;6.62;5.90;;;;;;;18.31;64.21;100642.59;1725769;83;20980;-69
2021/05/20 04:40:28;;;;;;;10.40;7.33;;;;;;;17.59;64.03;100642.26;1725427;83;21052;-69
2021/05/20 04:42:55;;;;;;;10.82;7.15;;;;;;;16.70;64.29;100651.72;1725626;83;21020;-69
2021/05/20 04:45:21;;;;;;;10.68;7.62;;;;;;;16.26;64.59;100643.56;1725741;83;21157;-69
2021/05/20 04:47:47;;;;;;;9.85;7.90;;;;;;;15.90;64.74;100641.10;1725671;83;21143;-69
2021/05/20 04:50:14;;;;;;;11.15;8.60;;;;;;;15.61;64.84;100651.27;1688438;83;20914;-69
2021/05/20 04:52:40;;;;;;;12.20;7.15;;;;;;;15.29;64.78;100648.62;1678535;85;21706;-69
2021/05/20 04:55:08;;;;;;;8.23;6.58;;;;;;;15.25;64.79;100646.84;1725710;83;21020;-69
2021/05/20 04:57:34;;;;;;;14.18;7.10;;;;;;;15.30;64.77;100642.23;1725418;83;21829;-69
2021/05/20 05:00:00;;;;;;;10.28;6.33;;;;;;;15.30;64.65;100639.03;1725583;83;20870;-69
2021/05/20 05:02:27;;;;;;;9.63;6.37;;;;;;;15.52;64.64;100639.02;1725413;83;21540;-70
2021/05/20 05:04:53;;;;;;;10.30;6.85;;;;;;;15.80;64.48;100639.80;1725614;83;21072;-69
2021/05/20 05:07:19;;;;;;;11.05;6.17;;;;;;;16.13;64.25;100637.30;1725744;83;21056;-69
2021/05/20 05:09:45;;;;;;;12.00;6.70;;;;;;;16.43;64.21;100636.79;1734146;82;21747;-69
2021/05/20 05:12:11;;;;;;;5.67;5.03;;;;;;;16.57;64.06;100643.62;1706578;84;20904;-69
2021/05/20 05:14:37;;;;;;;7.42;6.08;;;;;;;16.50;63.83;100642.22;1705107;84;21575;-69
2021/05/20 05:17:03;;;;;;;8.08;5.33;;;;;;;16.41;63.74;100642.91;1706884;84;20916;-69
2021/05/20 05:19:29;;;;;;;11.10;7.45;;;;;;;16.57;63.54;100638.23;1704840;84;21031;-69
2021/05/20 05:21:59;;;;;;;11.20;6.62;;;;;;;16.76;63.29;100646.86;1706822;84;21075;-69
2021/05/20 05:24:23;;;;;;;10.75;7.08;;;;;;;16.78;63.04;100643.47;1704526;84;21103;-70
2021/05/20 05:26:49;;;;;;;13.72;7.20;;;;;;;16.58;62.90;100656.02;1706521;83;20992;-69
2021/05/20 05:29:15;;;;;;;8.55;5.97;;;;;;;16.47;62.74;100656.89;1704844;84;21067;-69
2021/05/20 05:31:41;;;;;;;15.43;8.78;;;;;;;16.44;62.53;100656.47;1704586;84;21679;-69
2021/05/20 05:34:07;;;;;;;11.38;7.08;;;;;;;16.40;62.47;100657.90;1706814;84;21111;-70
2021/05/20 05:36:34;;;;;;;12.50;6.12;;;;;;;16.51;62.32;100654.63;1706649;84;21572;-70
2021/05/20 05:39:00;;;;;;;10.93;5.50;;;;;;;16.43;62.11;100663.71;1706891;84;20989;-69
2021/05/20 05:41:26;;;;;;;7.60;6.03;;;;;;;16.25;61.94;100660.77;1678114;85;20917;-69
2021/05/20 05:43:51;;;;;;;11.55;6.22;;;;;;;16.15;61.86;100660.27;1706599;84;21075;-69
2021/05/20 05:46:17;;;;;;;8.78;6.72;;;;;;;16.16;61.79;100665.98;1678323;85;21137;-69
2021/05/20 05:48:46;;;;;;;9.03;6.65;;;;;;;16.19;61.75;100661.54;1706421;84;20991;-69
2021/05/20 05:51:14;;;;;;;10.75;6.53;;;;;;;16.13;61.71;100663.69;1668994;85;21547;-69
2021/05/20 05:53:39;;;;;;;10.35;6.53;;;;;;;16.04;61.66;100667.59;1678073;85;21563;-70
2021/05/20 05:56:05;;;;;;;9.88;6.08;;;;;;;16.00;61.67;100669.02;1682097;84;21012;-69
2021/05/20 05:58:31;;;;;;;10.13;6.05;;;;;;;16.07;61.50;100665.84;1669692;85;21157;-69
2021/05/20 06:00:58;;;;;;;9.08;6.47;;;;;;;16.22;61.45;100666.52;1698269;84;21617;-69
2021/05/20 06:03:24;;;;;;;13.53;7.42;;;;;;;16.26;61.45;100661.05;1704383;83;21059;-69
2021/05/20 06:05:50;;;;;;;8.40;6.37;;;;;;;16.37;61.37;100665.87;1719436;82;21624;-69
2021/05/20 06:08:16;;;;;;;7.87;6.17;;;;;;;16.53;61.33;100663.35;1699257;84;21025;-69
2021/05/20 06:10:42;;;;;;;6.65;5.80;;;;;;;16.70;61.28;100670.58;1683353;85;20945;-70
2021/05/20 06:13:08;;;;;;;8.08;5.83;;;;;;;16.71;61.15;100669.01;1671046;85;21113;-69
2021/05/20 06:15:34;;;;;;;8.13;5.97;;;;;;;16.60;60.99;100680.91;1696442;84;20996;-70
2021/05/20 06:18:00;;;;;;;12.15;6.75;;;;;;;16.47;61.02;100679.78;1724733;81;20866;-69
2021/05/20 06:20:26;;;;;;;9.10;6.12;;;;;;;16.59;61.03;100688.66;1755906;81;20965;-70
2021/05/20 06:22:53;;;;;;;8.75;5.95;;;;;;;16.55;60.98;100679.29;1727375;81;21763;-69
2021/05/20 06:25:20;;;;;;;11.22;7.60;;;;;;;16.48;60.87;100681.45;1718561;82;21567;-70
2021/05/20 06:27:46;;;;;;;10.13;6.70;;;;;;;16.57;60.99;100684.01;1718958;82;21738;-70
2021/05/20 06:30:13;;;;;;;9.00;6.55;;;;;;;16.79;60.94;100684.16;1704670;82;20913;-70
2021/05/20 06:32:39;;;;;;;9.18;5.92;;;;;;;16.87;60.87;100683.98;1697093;83;21634;-70
2021/05/20 06:35:05;;;;;;;12.90;6.58;;;;;;;16.55;60.68;100687.37;1706068;83;21262;-70
2021/05/20 06:37:32;;;;;;;11.85;6.40;;;;;;;16.20;60.87;100690.12;1711316;81;21630;-70
2021/05/20 06:39:59;;;;;;;9.73;6.40;;;;;;;16.02;60.94;100694.35;1718217;83;21067;-69
2021/05/20 06:42:25;;;;;;;11.43;7.00;;;;;;;16.09;61.04;100692.02;1719451;82;21092;-69
2021/05/20 06:44:51;;;;;;;8.25;6.35;;;;;;;16.16;61.07;100694.23;1655004;86;21044;-69
2021/05/20 06:47:17;;;;;;;8.78;6.03;;;;;;;15.84;61.10;100687.63;1662624;85;21143;-69
2021/05/20 06:49:43;;;;;;;12.15;6.42;;;;;;;15.67;61.19;100690.81;1715296;83;20973;-70
2021/05/20 06:52:09;;;;;;;10.48;5.40;;;;;;;15.48;61.30;100700.38;1709016;83;20897;-70
2021/05/20 06:54:35;;;;;;;9.38;6.10;;;;;;;15.09;61.36;100695.47;1718731;81;21028;-69
2021/05/20 06:57:17;;;;;;;8.63;6.28;;;;;;;14.79;61.65;100704.64;1710535;83;20923;-69
2021/05/20 07:02:19;;;;;;;9.25;6.60;;;;;;;14.15;62.26;100711.14;1709538;83;21034;-69
2021/05/20 07:04:45;;;;;;;9.18;6.33;;;;;;;14.07;62.51;100717.95;1718931;83;20953;-69
2021/05/20 07:07:12;;;;;;;11.03;7.20;;;;;;;14.00;62.80;100705.77;1711988;83;20928;-69
2021/05/20 07:09:39;;;;;;;12.00;8.48;;;;;;;13.97;63.02;100711.50;1726083;82;21135;-69
2021/05/20 07:12:05;;;;;;;12.00;7.50;;;;;;;13.90;63.16;100708.39;1722907;82;21129;-69
2021/05/20 07:14:32;;;;;;;9.75;7.42;;;;;;;13.71;63.42;100692.36;1719575;82;21434;-69
2021/05/20 07:16:58;;;;;;;10.13;7.85;;;;;;;13.73;63.67;100707.73;1721495;82;21255;-69
2021/05/20 07:19:24;;;;;;;12.00;7.65;;;;;;;13.67;63.84;100712.49;1721873;82;21059;-70
2021/05/20 07:21:50;;;;;;;9.33;7.30;;;;;;;13.75;64.05;100708.91;1715506;82;20923;-69
2021/05/20 07:24:17;;;;;;;12.45;7.75;;;;;;;13.89;64.19;100709.43;1706375;82;21075;-69
2021/05/20 07:26:43;;;;;;;11.05;7.20;;;;;;;14.09;64.33;100711.88;1719342;82;21111;-69
2021/05/20 07:29:10;;;;;;;8.48;7.40;;;;;;;14.34;64.45;100706.59;1722587;82;20935;-69
2021/05/20 07:31:36;;;;;;;8.45;6.83;;;;;;;14.61;64.48;100712.27;1727306;82;21108;-69
2021/05/20 07:34:03;;;;;;;9.93;6.37;;;;;;;14.69;64.41;100710.32;1723969;82;21088;-69
2021/05/20 07:36:29;;;;;;;10.63;7.33;;;;;;;14.56;64.40;100700.78;1684390;84;21093;-70
2021/05/20 07:38:55;;;;;;;8.88;7.35;;;;;;;14.62;64.48;100712.60;1725414;82;20988;-69
2021/05/20 07:41:21;;;;;;;13.08;7.00;;;;;;;14.60;64.49;100711.97;1726479;82;20976;-69
2021/05/20 07:43:47;;;;;;;10.58;7.08;;;;;;;14.64;64.49;100719.94;1724657;82;20865;-69
2021/05/20 07:46:13;;;;;;;10.78;7.78;;;;;;;14.57;64.48;100719.03;1729546;82;20925;-69
2021/05/20 07:48:39;;;;;;;11.08;7.90;;;;;;;14.11;64.53;100710.37;1721152;82;21152;-69
2021/05/20 07:51:07;;;;;;;8.60;7.75;;;;;;;14.11;64.53;100710.37;1726900;82;21075;-69
2021/05/20 07:53:34;;;;;;;10.32;8.23;;;;;;;14.08;64.63;100726.80;1720443;82;21086;-69
2021/05/20 07:56:01;;;;;;;10.48;7.53;;;;;;;14.13;64.71;100727.94;1721266;82;21060;-69
2021/05/20 07:58:28;;;;;;;14.05;8.83;;;;;;;14.80;64.61;100704.46;1718661;82;21040;-69
2021/05/20 08:00:56;;;;;;;9.33;7.70;;;;;;;15.41;64.83;100716.42;1698635;82;21833;-69
2021/05/20 08:03:45;;;;;;;7.35;6.42;;;;;;;15.41;64.83;100716.42;1726723;82;21088;-69
2021/05/20 08:06:12;;;;;;;8.18;5.85;;;;;;;15.60;64.51;100719.50;1716488;82;21068;-69
2021/05/20 08:11:21;;;;;;;7.75;6.00;;;;;;;15.58;64.19;100718.88;1668589;84;21112;-68
2021/05/20 08:13:48;;;;;;;9.20;5.95;;;;;;;15.94;64.07;100720.38;1668687;84;21172;-69
2021/05/20 08:16:14;;;;;;;7.97;5.12;;;;;;;16.23;63.81;100712.59;1676534;83;21084;-69
2021/05/20 08:18:40;;;;;;;6.20;5.55;;;;;;;16.52;63.65;100717.39;1716096;83;21080;-69
2021/05/20 08:21:06;;;;;;;8.13;5.28;;;;;;;16.43;63.16;100709.48;1710340;83;21695;-69
2021/05/20 08:23:33;;;;;;;5.58;4.87;;;;;;;16.63;63.01;100706.08;1716688;83;21069;-69
2021/05/20 08:26:00;;;;;;;6.20;4.80;;;;;;;16.67;62.68;100710.04;1708486;83;21579;-69
2021/05/20 08:28:26;;;;;;;7.33;5.22;;;;;;;16.88;62.57;100709.90;1702169;83;21088;-69
2021/05/20 08:30:52;;;;;;;6.10;4.60;;;;;;;17.00;62.26;100706.91;1699404;83;20932;-69
2021/05/20 08:33:18;;;;;;;6.78;4.87;;;;;;;17.12;62.04;100705.80;1699596;83;21096;-69
2021/05/20 08:35:44;;;;;;;5.17;3.60;;;;;;;17.32;61.75;100709.34;1706602;83;21007;-69
2021/05/20 08:38:10;;;;;;;7.37;3.85;;;;;;;17.29;61.26;100698.97;1704539;83;21930;-69
2021/05/20 08:40:36;;;;;;;5.12;3.72;;;;;;;17.33;61.01;100701.57;1707163;81;20944;-69
2021/05/20 08:43:03;;;;;;;4.12;3.75;;;;;;;17.40;60.58;100703.75;1702122;81;20996;-69
2021/05/20 08:45:31;;;;;;;4.25;2.65;;;;;;;17.46;60.33;100702.41;1698067;84;21111;-69
2021/05/20 08:47:57;;;;;;;6.42;5.67;;;;;;;17.36;59.85;100703.34;1698015;84;21028;-69
2021/05/20 08:50:26;;;;;;;7.05;3.37;;;;;;;17.31;59.38;100705.81;1696780;84;21119;-69
2021/05/20 08:52:52;;;;;;;7.22;3.15;;;;;;;17.22;58.90;100708.92;1685360;85;21105;-69
2021/05/20 08:55:21;;;;;;;6.78;3.50;;;;;;;17.17;58.49;100709.52;1725499;83;21559;-70
2021/05/20 08:57:47;;;;;;;4.50;3.23;;;;;;;17.22;58.32;100713.80;1702973;83;21071;-69
2021/05/20 09:00:17;;;;;;;5.80;3.60;;;;;;;17.34;58.16;100705.42;1725675;83;21048;-70
2021/05/20 09:02:43;;;;;;;5.03;3.45;;;;;;;17.42;58.04;100709.76;1724126;82;21087;-70
2021/05/20 09:05:18;;;;;;;7.15;3.50;;;;;;;17.54;57.84;100714.02;1674119;84;21579;-70
2021/05/20 09:07:52;;;;;;;6.60;3.08;;;;;;;17.51;57.58;100709.05;1690664;84;21574;-70
2021/05/20 09:10:23;;;;;;;3.05;2.67;;;;;;;17.71;57.59;100707.20;1675882;85;21033;-70
2021/05/20 09:12:55;;;;;;;6.72;3.10;;;;;;;17.73;57.11;100703.79;1650402;85;21592;-70
2021/05/20 09:15:26;;;;;;;3.50;2.60;;;;;;;17.43;56.74;100706.03;1673284;84;21662;-70
2021/05/20 09:17:53;;;;;;;4.45;2.80;;;;;;;17.60;56.70;100698.37;1687590;84;21436;-70
2021/05/20 09:20:21;;;;;;;3.95;2.20;;;;;;;17.96;56.44;100698.77;1691978;84;21135;-70
2021/05/20 09:22:51;;;;;;;4.40;2.30;;;;;;;17.77;55.91;100692.34;1687211;84;21091;-69
2021/05/20 09:25:17;;;;;;;3.20;2.55;;;;;;;17.39;55.74;100705.62;1695478;83;22033;-69
2021/05/20 09:27:45;;;;;;;5.42;2.35;;;;;;;16.91;55.46;100697.36;1725941;83;21085;-70
2021/05/20 09:30:25;;;;;;;4.17;2.60;;;;;;;16.54;55.37;100707.27;1698247;84;21036;-69
2021/05/20 09:33:13;;;;;;;4.90;2.27;;;;;;;16.26;55.31;100703.28;1674141;84;21098;-69
2021/05/20 09:35:45;;;;;;;5.78;3.30;;;;;;;16.19;55.36;100707.80;1690798;84;21099;-70
2021/05/20 09:38:20;;;;;;;3.42;2.40;;;;;;;16.74;55.55;100701.47;1710294;81;21045;-70
2021/05/20 09:40:55;;;;;;;2.58;2.37;;;;;;;17.30;55.42;100700.64;1754898;81;21117;-69
2021/05/20 09:43:29;;;;;;;2.62;2.22;;;;;;;17.66;55.34;100690.83;1687034;84;21056;-70
2021/05/20 09:45:54;;;;;;;3.40;2.00;;;;;;;17.33;55.06;100695.66;1698114;84;21038;-70
2021/05/20 09:48:22;;;;;;;2.20;1.70;;;;;;;16.98;55.07;100692.82;1697394;84;22373;-70
2021/05/20 09:50:52;;;;;;;3.92;2.08;;;;;;;16.64;54.91;100702.37;1685903;85;21101;-70
2021/05/20 09:53:21;;;;;;;6.87;2.58;;;;;;;16.28;54.89;100700.73;1721378;83;21888;-70
2021/05/20 09:56:00;;;;;;;5.05;3.12;;;;;;;15.87;54.89;100703.88;1725004;81;21060;-70
2021/05/20 09:58:31;;;;;;;4.03;3.50;;;;;;;15.56;55.13;100711.50;1718122;81;21056;-70
2021/05/20 10:00:59;;;;;;;2.70;2.40;;;;;;;15.52;55.42;100711.06;1710591;81;21088;-70
2021/05/20 10:03:26;;;;;;;4.80;2.50;;;;;;;16.22;55.78;100698.81;1755839;80;21420;-70
2021/05/20 10:06:01;;;;;;;5.22;2.40;;;;;;;16.90;55.71;100692.48;1737866;81;21206;-70
2021/05/20 10:08:33;;;;;;;4.80;2.45;;;;;;;17.07;55.43;100698.31;1725271;83;21116;-70
2021/05/20 10:11:01;;;;;;;6.28;2.90;;;;;;;16.87;55.32;100708.23;1698526;82;21044;-69
2021/05/20 10:13:28;;;;;;;5.28;2.70;;;;;;;16.42;55.16;100697.07;1693899;84;21724;-69
2021/05/20 10:15:55;;;;;;;3.75;2.15;;;;;;;16.11;55.22;100707.47;1693849;84;21080;-70
2021/05/20 10:18:28;;;;;;;5.25;3.40;;;;;;;15.84;55.32;100713.69;1707765;83;21104;-69
2021/05/20 10:21:01;;;;;;;5.65;2.72;;;;;;;15.76;55.47;100713.31;1724472;83;21055;-69
2021/05/20 10:23:27;;;;;;;6.03;2.77;;;;;;;15.65;55.49;100707.67;1724942;83;21738;-69
2021/05/20 10:25:54;;;;;;;9.10;2.52;;;;;;;15.50;55.55;100711.78;1724160;83;21143;-69
2021/05/20 10:28:21;;;;;;;2.90;2.15;;;;;;;15.60;55.78;100711.44;1724555;83;21076;-69
2021/05/20 10:30:49;;;;;;;4.92;2.37;;;;;;;15.87;55.84;100702.02;1724874;82;21793;-69
2021/05/20 10:33:16;;;;;;;5.83;3.25;;;;;;;15.83;55.78;100696.72;1698195;83;21984;-69
2021/05/20 10:35:48;;;;;;;2.87;2.30;;;;;;;15.73;55.84;100698.09;1695913;84;21088;-69
2021/05/20 10:38:35;;;;;;;2.30;2.10;;;;;;;15.89;55.99;100688.39;1694858;84;21071;-69
2021/05/20 10:41:20;;;;;;;3.45;1.67;;;;;;;16.18;55.92;100696.23;1695729;84;21096;-69
2021/05/20 10:43:51;;;;;;;3.37;1.90;;;;;;;16.27;55.75;100688.30;1664632;86;21614;-69
2021/05/20 10:46:18;;;;;;;4.62;2.27;;;;;;;16.58;55.70;100686.99;1652901;86;21062;-69
2021/05/20 10:48:54;;;;;;;2.65;2.05;;;;;;;16.88;55.56;100677.56;1652973;86;21574;-70
2021/05/20 10:51:32;;;;;;;4.72;1.50;;;;;;;16.59;55.20;100681.42;1652806;86;21111;-69
2021/05/20 10:54:07;;;;;;;4.72;1.82;;;;;;;16.52;55.27;100683.22;1645329;85;21055;-70
2021/05/20 10:56:42;;;;;;;7.08;2.30;;;;;;;16.84;55.21;100681.70;1680672;85;21774;-70
2021/05/20 10:59:37;;;;;;;3.87;1.98;;;;;;;16.78;54.91;100681.98;1680453;85;21040;-69
2021/05/20 11:02:04;;;;;;;3.42;2.10;;;;;;;16.57;54.78;100671.89;1660133;84;21071;-69
2021/05/20 11:04:38;;;;;;;7.10;2.70;;;;;;;16.42;54.73;100674.19;1679453;85;21083;-69
2021/05/20 11:07:04;;;;;;;3.15;2.52;;;;;;;16.36;54.68;100674.97;1678721;85;21115;-69
2021/05/20 11:09:48;;;;;;;2.22;1.40;;;;;;;16.26;54.74;100669.12;1677282;83;21076;-69
2021/05/20 11:12:17;;;;;;;4.28;2.08;;;;;;;16.18;54.79;100673.36;1671462;85;21461;-69
2021/05/20 11:14:44;;;;;;;4.95;1.60;;;;;;;16.05;54.74;100662.50;1672446;85;21114;-69
2021/05/20 11:17:33;;;;;;;2.42;1.70;;;;;;;16.17;54.85;100658.23;1667453;85;21084;-69
2021/05/20 11:20:26;;;;;;;3.30;1.97;;;;;;;16.48;54.82;100659.91;1663368;85;21628;-69
2021/05/20 11:23:17;;;;;;;3.10;2.00;;;;;;;16.59;54.75;100655.00;1662143;84;22094;-69
2021/05/20 11:25:44;;;;;;;2.95;1.98;;;;;;;16.86;54.81;100649.98;1641026;86;21145;-69
2021/05/20 11:28:10;;;;;;;7.45;2.17;;;;;;;17.01;54.68;100647.95;1683583;84;21121;-70
2021/05/20 11:30:36;;;;;;;4.97;1.92;;;;;;;17.13;54.58;100651.70;1672905;84;21708;-69